Time;durP1;ratioP1;P1;durP2;ratioP2;P2;SDS_P1;SDS_P2;PMS_P1;PMS_P2;Temp;Humidity;BMP_temperature;BMP_pressure;BME280_temperature;BME280_humidity;BME280_pressure;Samples;Min_cycle;Max_cycle;Signal;HPM_P1;HPM_P2
2024/03/29 00:00:39;;;;;;;3.30;1.27;;;8.70;91.50;;;;;;4899307;29;20190;-89
2024/03/29 00:03:05;;;;;;;1.67;1.37;;;8.90;91.20;;;;;;4917156;29;20717;-88
2024/03/29 00:05:31;;;;;;;1.70;1.20;;;9.20;91.10;;;;;;4902724;29;20221;-89
2024/03/29 00:07:56;;;;;;;2.67;1.20;;;10.20;90.70;;;;;;4902383;29;20194;-89
2024/03/29 00:10:23;;;;;;;2.00;1.30;;;9.10;90.70;;;;;;4904299;29;20679;-89
2024/03/29 00:12:49;;;;;;;1.75;1.65;;;9.10;90.80;;;;;;4939133;29;20211;-89
2024/03/29 00:15:15;;;;;;;1.83;1.30;;;;;;;;;;4925529;29;20191;-89
2024/03/29 00:17:40;;;;;;;2.53;1.20;;;9.50;90.50;;;;;;4916593;29;20498;-89
2024/03/29 00:20:06;;;;;;;6.07;1.63;;;9.30;90.20;;;;;;4911663;29;20203;-89
2024/03/29 00:22:33;;;;;;;1.73;1.60;;;9.40;89.90;;;;;;4896216;29;20203;-89
2024/03/29 00:24:58;;;;;;;2.60;2.22;;;9.60;90.40;;;;;;4899543;29;20280;-89
2024/03/29 00:27:26;;;;;;;2.20;1.20;;;9.40;91.30;;;;;;4902634;29;20202;-88
2024/03/29 00:29:55;;;;;;;1.60;1.23;;;9.30;91.00;;;;;;4914416;29;20666;-89
2024/03/29 00:32:21;;;;;;;1.40;1.10;;;9.20;90.50;;;;;;4922824;29;20191;-89
2024/03/29 00:34:50;;;;;;;1.60;1.17;;;9.70;91.50;;;;;;4935442;29;20420;-88
2024/03/29 00:37:16;;;;;;;1.60;1.30;;;9.30;90.80;;;;;;4920025;29;20210;-88
2024/03/29 00:39:41;;;;;;;1.60;1.50;;;9.50;90.60;;;;;;4920212;29;20232;-89
2024/03/29 00:42:12;;;;;;;2.30;1.67;;;9.20;91.00;;;;;;4922766;29;20432;-89
2024/03/29 00:44:38;;;;;;;1.50;1.40;;;9.30;91.90;;;;;;4921462;29;20211;-89
2024/03/29 00:47:05;;;;;;;1.80;1.27;;;9.40;92.20;;;;;;4923677;29;20207;-87
2024/03/29 00:49:30;;;;;;;1.30;1.20;;;9.30;92.20;;;;;;4923339;29;20183;-88
2024/03/29 00:51:56;;;;;;;1.80;1.20;;;9.60;91.80;;;;;;4928283;29;20266;-88
2024/03/29 00:54:25;;;;;;;2.10;1.43;;;10.00;91.20;;;;;;4909439;29;20248;-88
2024/03/29 00:56:51;;;;;;;2.10;1.85;;;9.70;92.50;;;;;;4903689;29;20211;-88
2024/03/29 00:59:17;;;;;;;2.27;1.30;;;9.10;92.70;;;;;;4914200;29;20206;-88
2024/03/29 01:01:43;;;;;;;1.57;1.47;;;9.60;93.40;;;;;;4898971;29;20973;-88
2024/03/29 01:04:08;;;;;;;2.47;1.65;;;9.50;93.60;;;;;;4899078;29;20200;-88
2024/03/29 01:06:34;;;;;;;2.80;1.90;;;9.00;93.70;;;;;;4920057;29;20214;-88
2024/03/29 01:09:03;;;;;;;1.30;1.20;;;8.80;93.70;;;;;;4922506;29;20199;-88
2024/03/29 01:11:29;;;;;;;1.80;1.42;;;8.90;93.90;;;;;;4925093;29;20203;-88
2024/03/29 01:13:55;;;;;;;2.10;1.63;;;9.10;93.80;;;;;;4913267;29;20187;-88
2024/03/29 01:16:20;;;;;;;3.03;1.30;;;9.10;93.80;;;;;;4898662;29;20218;-88
2024/03/29 01:18:46;;;;;;;1.63;1.33;;;8.90;93.80;;;;;;4914211;29;20242;-88
2024/03/29 01:21:12;;;;;;;2.00;1.35;;;9.40;93.90;;;;;;4902206;29;20201;-88
2024/03/29 01:23:39;;;;;;;1.65;1.40;;;9.00;93.60;;;;;;4913655;29;20237;-88
2024/03/29 01:26:06;;;;;;;2.25;1.25;;;9.00;93.70;;;;;;4911073;29;20217;-88
2024/03/29 01:28:32;;;;;;;1.60;1.50;;;9.40;93.90;;;;;;4913517;29;20273;-88
2024/03/29 01:31:00;;;;;;;1.97;1.70;;;9.40;93.70;;;;;;4897247;29;20277;-89
2024/03/29 01:33:26;;;;;;;1.55;1.10;;;9.00;93.30;;;;;;4911735;29;20191;-89
2024/03/29 01:35:52;;;;;;;1.87;1.30;;;8.90;93.30;;;;;;4898652;29;20584;-89
2024/03/29 01:38:18;;;;;;;1.55;1.35;;;9.00;93.50;;;;;;4899227;29;20467;-88
2024/03/29 01:40:43;;;;;;;2.20;1.47;;;9.00;93.80;;;;;;4907061;29;20207;-88
2024/03/29 01:43:09;;;;;;;2.00;1.80;;;9.10;94.00;;;;;;4921022;29;20183;-89
2024/03/29 01:45:38;;;;;;;1.70;1.20;;;9.10;94.50;;;;;;4905787;29;20525;-88
2024/03/29 01:48:04;;;;;;;1.67;1.50;;;9.00;94.00;;;;;;4914685;29;20285;-88
2024/03/29 01:50:31;;;;;;;1.67;1.58;;;9.00;94.00;;;;;;4898140;29;20569;-89
2024/03/29 01:52:57;;;;;;;1.55;1.45;;;9.00;93.60;;;;;;4898389;29;20526;-87
2024/03/29 01:55:23;;;;;;;2.70;1.10;;;9.00;93.90;;;;;;4899451;29;20210;-89
2024/03/29 01:57:50;;;;;;;1.67;1.10;;;9.30;94.10;;;;;;4897115;29;20466;-88
2024/03/29 02:00:16;;;;;;;1.73;1.42;;;8.80;93.90;;;;;;4916402;29;20457;-89
2024/03/29 02:02:43;;;;;;;1.30;1.20;;;9.40;94.00;;;;;;4899096;29;20183;-89
2024/03/29 02:05:08;;;;;;;1.10;1.00;;;9.40;93.70;;;;;;4895216;29;20203;-89
2024/03/29 02:07:36;;;;;;;3.27;1.30;;;9.00;92.90;;;;;;4897394;29;20707;-89
2024/03/29 02:10:02;;;;;;;1.30;1.02;;;9.50;92.40;;;;;;4901736;29;20200;-88
2024/03/29 02:12:28;;;;;;;0.90;0.88;;;9.50;91.70;;;;;;4904546;29;20197;-89
2024/03/29 02:14:53;;;;;;;1.30;0.90;;;9.50;91.50;;;;;;4903396;29;20246;-89
2024/03/29 02:17:19;;;;;;;1.80;0.83;;;9.50;91.10;;;;;;4902440;29;20214;-88
2024/03/29 02:19:44;;;;;;;1.10;0.90;;;10.00;90.20;;;;;;4904448;29;20200;-89
2024/03/29 02:22:15;;;;;;;1.23;0.70;;;10.00;89.10;;;;;;4904674;29;20187;-89
2024/03/29 02:24:40;;;;;;;3.28;1.33;;;9.60;89.00;;;;;;4904771;29;20213;-88
2024/03/29 02:27:06;;;;;;;1.47;0.90;;;10.30;87.40;;;;;;4908404;29;20210;-88
2024/03/29 02:29:31;;;;;;;1.17;0.90;;;10.20;86.90;;;;;;4917778;29;20216;-88
2024/03/29 02:31:57;;;;;;;1.27;0.80;;;10.20;86.70;;;;;;4906450;29;20246;-88
2024/03/29 02:34:23;;;;;;;1.03;0.80;;;10.00;86.20;;;;;;4903919;29;20192;-88
2024/03/29 02:36:48;;;;;;;1.10;1.00;;;10.00;85.70;;;;;;4902482;29;20715;-88
2024/03/29 02:39:14;;;;;;;1.00;0.90;;;10.10;85.90;;;;;;4917400;29;20208;-88
2024/03/29 02:41:39;;;;;;;1.10;1.00;;;10.00;86.20;;;;;;4903516;29;20203;-89
2024/03/29 02:44:05;;;;;;;1.07;0.97;;;10.40;88.00;;;;;;4899417;29;20195;-88
2024/03/29 02:46:31;;;;;;;3.37;1.40;;;10.10;88.20;;;;;;4905485;29;20215;-89
2024/03/29 02:48:56;;;;;;;0.97;0.87;;;10.40;88.90;;;;;;4922401;29;20200;-88
2024/03/29 02:51:21;;;;;;;1.83;1.60;;;10.00;88.30;;;;;;4923174;29;20227;-88
2024/03/29 02:53:47;;;;;;;1.10;1.00;;;10.10;89.20;;;;;;4904348;29;20240;-89
2024/03/29 02:56:14;;;;;;;1.77;1.20;;;10.00;89.60;;;;;;4918806;29;20218;-89
2024/03/29 02:58:40;;;;;;;1.70;1.00;;;10.10;90.20;;;;;;4910917;28;20180;-88
2024/03/29 03:01:09;;;;;;;1.10;0.90;;;10.40;89.70;;;;;;4929404;29;20203;-89
2024/03/29 03:03:35;;;;;;;1.90;1.08;;;9.90;90.00;;;;;;4923021;29;20218;-88
2024/03/29 03:06:02;;;;;;;1.92;1.20;;;10.30;90.10;;;;;;4907048;29;20692;-89
2024/03/29 03:11:13;;;;;;;1.00;0.80;;;9.70;90.60;;;;;;4921684;29;20563;-88
2024/03/29 03:13:38;;;;;;;1.00;0.90;;;9.90;90.10;;;;;;4901874;29;20183;-88
2024/03/29 03:16:04;;;;;;;1.00;0.70;;;9.90;90.50;;;;;;4901057;29;20214;-88
2024/03/29 03:18:30;;;;;;;0.80;0.80;;;9.70;90.40;;;;;;4909965;29;20504;-88
2024/03/29 03:20:57;;;;;;;1.50;1.00;;;10.30;90.40;;;;;;4915906;29;20864;-88
2024/03/29 03:23:23;;;;;;;2.30;1.00;;;9.70;91.00;;;;;;4899538;29;20202;-88
2024/03/29 03:25:59;;;;;;;1.77;1.20;;;9.70;90.70;;;;;;4914136;29;20593;-88
2024/03/29 03:28:26;;;;;;;0.90;0.63;;;9.80;91.20;;;;;;4898292;29;20445;-88
2024/03/29 03:30:52;;;;;;;1.08;0.98;;;9.50;91.00;;;;;;4900354;29;20190;-87
2024/03/29 03:33:18;;;;;;;1.00;0.90;;;9.70;91.30;;;;;;4900314;29;20211;-86
2024/03/29 03:35:45;;;;;;;3.17;0.80;;;9.80;90.80;;;;;;4917583;29;21296;-87
2024/03/29 03:38:11;;;;;;;1.80;1.00;;;9.90;91.20;;;;;;4915514;29;20221;-87
2024/03/29 03:40:37;;;;;;;1.87;0.93;;;9.80;91.10;;;;;;4911869;29;20718;-87
2024/03/29 03:43:03;;;;;;;0.90;0.80;;;9.90;91.20;;;;;;4901642;29;21042;-89
2024/03/29 03:45:33;;;;;;;1.10;1.00;;;10.00;91.10;;;;;;4899944;29;20246;-89
2024/03/29 03:47:59;;;;;;;1.15;1.05;;;9.90;91.40;;;;;;4899937;29;20213;-89
2024/03/29 03:50:24;;;;;;;0.90;0.60;;;10.20;91.00;;;;;;4899613;29;20632;-87
2024/03/29 03:52:50;;;;;;;0.97;0.87;;;10.00;91.20;;;;;;4899974;29;20203;-87
2024/03/29 03:55:15;;;;;;;2.30;0.70;;;10.20;90.00;;;;;;4899569;29;20199;-87
2024/03/29 03:57:41;;;;;;;2.30;0.90;;;10.00;90.30;;;;;;4899795;29;20222;-87
2024/03/29 04:00:07;;;;;;;0.80;0.70;;;9.90;91.20;;;;;;4898808;29;20286;-87
2024/03/29 04:02:32;;;;;;;1.17;0.75;;;10.10;90.40;;;;;;4913231;29;20199;-87
2024/03/29 04:04:58;;;;;;;0.70;0.70;;;10.10;90.10;;;;;;4916073;29;20227;-89
2024/03/29 04:07:24;;;;;;;1.60;1.00;;;10.40;88.80;;;;;;4888487;29;20215;-89
2024/03/29 04:09:53;;;;;;;1.48;0.70;;;10.20;90.30;;;;;;4899123;29;20190;-89
2024/03/29 04:12:18;;;;;;;1.83;0.90;;;10.10;90.30;;;;;;4897532;29;20208;-89
2024/03/29 04:14:44;;;;;;;2.23;1.03;;;10.30;90.50;;;;;;4897194;29;20653;-89
2024/03/29 04:17:10;;;;;;;1.47;0.97;;;10.40;90.70;;;;;;4904350;29;20236;-89
2024/03/29 04:19:35;;;;;;;1.33;1.10;;;10.60;90.50;;;;;;4934113;29;20206;-88
2024/03/29 04:22:01;;;;;;;1.20;1.10;;;10.30;90.50;;;;;;4917750;29;20436;-89
2024/03/29 04:24:28;;;;;;;1.23;0.80;;;10.50;90.70;;;;;;4915703;29;20233;-87
2024/03/29 04:26:53;;;;;;;1.90;1.08;;;10.40;90.60;;;;;;4908902;29;20204;-89
2024/03/29 04:29:19;;;;;;;1.50;0.90;;;10.30;91.00;;;;;;4911768;29;20193;-89
2024/03/29 04:31:45;;;;;;;1.97;1.00;;;10.10;90.80;;;;;;4899458;29;20676;-89
2024/03/29 04:34:11;;;;;;;0.88;0.80;;;10.20;91.00;;;;;;4898678;29;20596;-89
2024/03/29 04:36:36;;;;;;;2.00;0.70;;;10.50;91.10;;;;;;4900188;29;20214;-88
2024/03/29 04:39:02;;;;;;;1.30;1.00;;;10.30;90.90;;;;;;4912026;29;20267;-89
2024/03/29 04:41:28;;;;;;;1.10;1.00;;;10.10;90.50;;;;;;4900095;29;20219;-88
2024/03/29 04:43:53;;;;;;;1.20;1.03;;;10.20;91.00;;;;;;4893671;29;20667;-87
2024/03/29 04:46:19;;;;;;;1.03;0.93;;;10.50;91.90;;;;;;4903097;29;20224;-89
2024/03/29 04:48:45;;;;;;;1.17;0.77;;;10.40;90.70;;;;;;4897656;29;20196;-89
2024/03/29 04:51:12;;;;;;;1.10;0.80;;;10.40;87.20;;;;;;4897728;29;20194;-87
2024/03/29 04:53:38;;;;;;;0.70;0.63;;;10.40;86.10;;;;;;4913264;29;20192;-87
2024/03/29 04:56:05;;;;;;;3.40;0.80;;;10.90;84.10;;;;;;4897547;29;20214;-89
2024/03/29 04:58:31;;;;;;;1.10;1.00;;;10.50;84.60;;;;;;4898821;29;20192;-89
2024/03/29 05:00:56;;;;;;;1.10;0.80;;;11.00;88.00;;;;;;4912661;29;20193;-89
2024/03/29 05:03:22;;;;;;;0.70;0.70;;;11.10;89.50;;;;;;4897825;29;20417;-89
2024/03/29 05:05:50;;;;;;;1.20;0.60;;;10.80;82.80;;;;;;4878793;29;20239;-89
2024/03/29 05:08:17;;;;;;;0.80;0.60;;;11.10;83.80;;;;;;4911985;29;20203;-89
2024/03/29 05:10:43;;;;;;;1.13;0.70;;;10.70;84.60;;;;;;4928069;29;20239;-89
2024/03/29 05:13:09;;;;;;;2.60;2.40;;;10.70;86.10;;;;;;4921220;29;20196;-89
2024/03/29 05:15:34;;;;;;;0.70;0.70;;;10.90;87.70;;;;;;4917371;29;20196;-89
2024/03/29 05:18:00;;;;;;;2.20;1.40;;;10.80;87.30;;;;;;4936498;29;20503;-89
2024/03/29 05:20:25;;;;;;;1.90;1.10;;;11.30;87.20;;;;;;4936507;29;20515;-89
2024/03/29 05:22:51;;;;;;;4.17;1.00;;;10.90;87.20;;;;;;4922547;29;20199;-87
2024/03/29 05:25:17;;;;;;;1.60;1.00;;;11.30;87.60;;;;;;4903535;29;20205;-89
2024/03/29 05:27:42;;;;;;;2.10;0.90;;;10.90;87.30;;;;;;4897709;29;20684;-89
2024/03/29 05:30:09;;;;;;;1.00;0.90;;;10.90;88.60;;;;;;4896179;29;20680;-89
2024/03/29 05:32:35;;;;;;;0.98;0.70;;;11.00;89.10;;;;;;4896195;29;20181;-89
2024/03/29 05:35:01;;;;;;;1.20;0.83;;;11.20;88.80;;;;;;4913343;29;20192;-89
2024/03/29 05:37:26;;;;;;;0.70;0.70;;;10.80;88.00;;;;;;4910596;29;20471;-89
2024/03/29 05:40:04;;;;;;;1.10;0.77;;;11.10;88.20;;;;;;4897206;29;20185;-88
2024/03/29 05:42:33;;;;;;;0.98;0.70;;;10.80;88.50;;;;;;4898727;29;20662;-89
2024/03/29 05:44:59;;;;;;;0.90;0.75;;;10.90;88.10;;;;;;4916856;29;20217;-89
2024/03/29 05:47:24;;;;;;;1.10;0.80;;;10.60;88.10;;;;;;4939907;29;20207;-89
2024/03/29 05:49:50;;;;;;;1.30;0.60;;;10.90;88.20;;;;;;4925232;29;20227;-89
2024/03/29 05:52:16;;;;;;;1.05;0.88;;;10.70;87.20;;;;;;4893137;29;20200;-87
2024/03/29 05:54:45;;;;;;;0.70;0.60;;;11.30;87.70;;;;;;4883926;29;20192;-89
2024/03/29 05:57:11;;;;;;;0.80;0.80;;;11.10;87.30;;;;;;4898381;29;20204;-89
2024/03/29 05:59:37;;;;;;;0.80;0.70;;;11.30;87.50;;;;;;4898428;29;20196;-88
2024/03/29 06:02:03;;;;;;;1.15;0.85;;;11.20;87.40;;;;;;4914754;29;20196;-89
2024/03/29 06:04:32;;;;;;;1.33;0.70;;;11.00;86.80;;;;;;4896269;29;20208;-88
2024/03/29 06:07:02;;;;;;;0.95;0.80;;;10.80;86.50;;;;;;4912991;29;20324;-86
2024/03/29 06:09:27;;;;;;;1.13;0.90;;;10.90;86.90;;;;;;4912752;29;20223;-88
2024/03/29 06:11:57;;;;;;;0.93;0.83;;;10.90;86.50;;;;;;4900561;29;20689;-89
2024/03/29 06:17:23;;;;;;;1.00;0.73;;;11.50;84.70;;;;;;4912330;29;20244;-88
2024/03/29 06:19:50;;;;;;;0.90;0.75;;;11.40;86.50;;;;;;4914948;29;20280;-88
2024/03/29 06:22:17;;;;;;;1.00;0.90;;;11.60;87.40;;;;;;4899314;29;20184;-87
2024/03/29 06:24:44;;;;;;;3.13;0.80;;;11.30;86.40;;;;;;4898015;29;20232;-88
2024/03/29 06:27:10;;;;;;;2.58;0.90;;;11.50;85.90;;;;;;4913778;29;20236;-88
2024/03/29 06:29:36;;;;;;;1.08;0.90;;;11.50;85.30;;;;;;4911217;29;20702;-88
2024/03/29 06:32:02;;;;;;;1.30;0.90;;;11.60;85.00;;;;;;4901121;29;20272;-88
2024/03/29 06:34:31;;;;;;;1.10;0.82;;;11.60;84.50;;;;;;4900448;29;20327;-88
2024/03/29 06:36:57;;;;;;;2.83;1.80;;;11.90;84.70;;;;;;4923373;29;20218;-88
2024/03/29 06:39:25;;;;;;;1.00;0.70;;;11.90;84.80;;;;;;4914380;29;20189;-88
2024/03/29 06:41:51;;;;;;;1.50;0.90;;;11.80;84.10;;;;;;4906593;29;20453;-88
2024/03/29 06:44:17;;;;;;;1.40;0.87;;;12.30;84.60;;;;;;4933658;29;20213;-88
2024/03/29 06:46:42;;;;;;;1.03;0.93;;;11.90;83.80;;;;;;4922853;29;21060;-88
2024/03/29 06:49:08;;;;;;;1.57;1.20;;;12.00;83.40;;;;;;4906452;29;20212;-88
2024/03/29 06:51:33;;;;;;;1.10;0.90;;;12.60;82.90;;;;;;4916429;29;20189;-88
2024/03/29 06:53:59;;;;;;;1.70;1.10;;;12.80;82.60;;;;;;4931188;29;20197;-88
2024/03/29 06:56:24;;;;;;;1.20;1.10;;;13.50;83.00;;;;;;4927656;29;20225;-89
2024/03/29 06:58:50;;;;;;;1.27;0.87;;;13.00;82.20;;;;;;4901881;29;20204;-88
2024/03/29 07:01:15;;;;;;;0.97;0.70;;;12.50;80.70;;;;;;4900058;29;20194;-88
2024/03/29 07:03:41;;;;;;;1.70;0.90;;;12.60;80.40;;;;;;4901651;29;20210;-88
2024/03/29 07:06:06;;;;;;;0.83;0.73;;;12.60;80.40;;;;;;4900676;29;20232;-88
2024/03/29 07:08:32;;;;;;;2.37;1.07;;;13.00;80.30;;;;;;4916824;29;20861;-89
2024/03/29 07:11:01;;;;;;;1.17;1.00;;;12.70;80.20;;;;;;4920882;29;20671;-88
2024/03/29 07:13:33;;;;;;;1.98;1.20;;;12.60;79.90;;;;;;4903217;29;20667;-89
2024/03/29 07:16:02;;;;;;;1.25;1.15;;;12.90;79.10;;;;;;4916984;29;20698;-88
2024/03/29 07:18:28;;;;;;;1.23;0.88;;;12.80;78.50;;;;;;4919237;29;20304;-89
2024/03/29 07:20:54;;;;;;;1.17;1.03;;;12.90;78.80;;;;;;4905178;29;20703;-88
2024/03/29 07:23:20;;;;;;;1.20;1.03;;;12.70;78.60;;;;;;4900417;29;20647;-88
2024/03/29 07:25:57;;;;;;;1.48;1.23;;;12.70;79.40;;;;;;4902296;29;20208;-88
2024/03/29 07:28:22;;;;;;;1.45;1.13;;;12.80;80.00;;;;;;4912399;29;20637;-88
2024/03/29 07:30:50;;;;;;;0.90;0.90;;;12.60;80.80;;;;;;4898278;29;20187;-89
2024/03/29 07:33:15;;;;;;;1.95;1.10;;;12.50;81.60;;;;;;4919485;29;20204;-89
2024/03/29 07:35:41;;;;;;;2.27;1.10;;;12.90;85.80;;;;;;4899341;29;20181;-88
2024/03/29 07:38:07;;;;;;;1.35;1.10;;;12.30;87.70;;;;;;4921645;29;20301;-88
2024/03/29 07:40:34;;;;;;;2.50;1.70;;;12.30;92.10;;;;;;4902317;29;20269;-88
2024/03/29 07:43:00;;;;;;;2.60;1.55;;;12.10;92.70;;;;;;4917901;29;20450;-88
2024/03/29 07:45:26;;;;;;;1.25;1.15;;;11.90;96.40;;;;;;4916641;29;20774;-88
2024/03/29 07:47:53;;;;;;;1.85;1.17;;;11.80;97.60;;;;;;4902285;29;20750;-88
2024/03/29 07:50:19;;;;;;;1.98;0.90;;;11.10;98.60;;;;;;4901623;29;20197;-89
2024/03/29 07:52:45;;;;;;;2.65;1.15;;;11.50;98.90;;;;;;4916624;29;20266;-89
2024/03/29 07:55:11;;;;;;;1.67;1.45;;;11.10;99.40;;;;;;4897913;29;20277;-88
2024/03/29 07:57:36;;;;;;;2.53;1.30;;;11.10;99.90;;;;;;4900409;29;20282;-88
2024/03/29 08:00:02;;;;;;;3.30;1.67;;;11.00;99.90;;;;;;4912889;29;20502;-88
2024/03/29 08:02:28;;;;;;;2.63;1.30;;;11.00;99.90;;;;;;4899167;29;20197;-88
2024/03/29 08:04:54;;;;;;;1.93;1.27;;;11.00;99.90;;;;;;4900134;29;20565;-88
2024/03/29 08:07:19;;;;;;;1.63;1.37;;;11.20;99.90;;;;;;4899208;29;20202;-88
2024/03/29 08:09:45;;;;;;;1.40;1.17;;;10.80;99.90;;;;;;4913063;29;20274;-88
2024/03/29 08:12:10;;;;;;;1.67;1.53;;;10.80;99.90;;;;;;4901903;29;20204;-89
2024/03/29 08:14:36;;;;;;;1.53;1.43;;;10.80;99.90;;;;;;4915192;29;20232;-88
2024/03/29 08:17:04;;;;;;;1.30;1.20;;;10.60;99.90;;;;;;4924214;29;20217;-89
2024/03/29 08:19:30;;;;;;;1.38;1.00;;;11.00;99.90;;;;;;4902573;29;20181;-89
2024/03/29 08:21:56;;;;;;;1.40;1.30;;;10.50;99.90;;;;;;4903028;29;22070;-89
2024/03/29 08:24:21;;;;;;;2.03;1.63;;;10.50;99.90;;;;;;4916969;29;20431;-89
2024/03/29 08:26:47;;;;;;;2.40;1.50;;;10.80;99.90;;;;;;4899147;29;20479;-89
2024/03/29 08:29:12;;;;;;;2.93;2.40;;;10.50;99.90;;;;;;4910265;29;20729;-88
2024/03/29 08:31:38;;;;;;;1.93;1.57;;;10.40;99.90;;;;;;4915216;29;20180;-88
2024/03/29 08:34:03;;;;;;;2.37;1.90;;;10.30;99.90;;;;;;4928680;29;20222;-88
2024/03/29 08:36:29;;;;;;;1.40;1.30;;;10.70;99.90;;;;;;4917852;29;20280;-89
2024/03/29 08:38:55;;;;;;;2.10;1.40;;;12.30;99.90;;;;;;4901486;29;20185;-89
2024/03/29 08:41:20;;;;;;;2.50;1.60;;;10.50;99.90;;;;;;4919599;29;20181;-89
2024/03/29 08:43:46;;;;;;;2.07;1.87;;;10.00;99.90;;;;;;4917530;29;20658;-87
2024/03/29 08:46:12;;;;;;;3.53;1.60;;;10.20;99.90;;;;;;4900390;29;20299;-88
2024/03/29 08:48:39;;;;;;;1.70;1.23;;;9.70;99.90;;;;;;4919247;29;20431;-89
2024/03/29 08:51:05;;;;;;;2.35;1.60;;;10.40;99.90;;;;;;4891721;29;20195;-89
2024/03/29 08:53:30;;;;;;;1.70;1.40;;;10.70;99.90;;;;;;4911242;29;20188;-88
2024/03/29 08:55:56;;;;;;;3.77;1.87;;;10.30;99.90;;;;;;4901714;29;20216;-88
2024/03/29 08:58:23;;;;;;;3.00;1.77;;;10.30;99.90;;;;;;4885936;29;20537;-88
2024/03/29 09:00:55;;;;;;;7.00;4.10;;;10.20;99.90;;;;;;4902534;29;20276;-87
2024/03/29 09:03:21;;;;;;;2.45;2.20;;;11.20;99.90;;;;;;4914602;29;20201;-89
2024/03/29 09:05:47;;;;;;;1.80;1.70;;;10.10;99.90;;;;;;4901999;29;20207;-88
2024/03/29 09:08:13;;;;;;;2.28;2.00;;;10.60;99.90;;;;;;4902508;29;21029;-88
2024/03/29 09:10:38;;;;;;;2.30;2.10;;;11.10;99.90;;;;;;4898553;29;20288;-88
2024/03/29 09:13:07;;;;;;;4.30;3.70;;;10.70;99.90;;;;;;4902320;29;20563;-88
2024/03/29 09:15:33;;;;;;;3.63;2.80;;;10.70;99.90;;;;;;4916093;29;20226;-89
2024/03/29 09:18:02;;;;;;;2.33;2.13;;;10.30;99.90;;;;;;4901886;29;20723;-89
2024/03/29 09:20:28;;;;;;;2.28;1.90;;;11.30;99.90;;;;;;4914838;29;20280;-88
2024/03/29 09:22:54;;;;;;;2.23;2.03;;;10.70;99.90;;;;;;4903751;29;20357;-89
2024/03/29 09:25:19;;;;;;;4.37;2.40;;;11.30;99.90;;;;;;4911384;29;20209;-89
2024/03/29 09:27:48;;;;;;;2.63;2.10;;;10.80;99.90;;;;;;4932728;29;20184;-89
2024/03/29 09:30:15;;;;;;;2.90;1.80;;;11.40;99.90;;;;;;4920845;29;20581;-89
2024/03/29 09:32:41;;;;;;;1.95;1.60;;;10.70;99.90;;;;;;4924712;29;20236;-89
2024/03/29 09:35:07;;;;;;;1.63;1.10;;;11.50;99.90;;;;;;4902409;29;20186;-89
2024/03/29 09:37:36;;;;;;;2.10;1.80;;;11.50;99.90;;;;;;4912947;29;20237;-89
2024/03/29 09:40:03;;;;;;;2.85;1.80;;;11.70;99.90;;;;;;4899189;29;20458;-88
2024/03/29 09:42:32;;;;;;;2.15;1.60;;;11.70;99.90;;;;;;4917469;29;20198;-88
2024/03/29 09:45:01;;;;;;;1.20;1.10;;;11.60;99.90;;;;;;4913507;29;20339;-88
2024/03/29 09:47:27;;;;;;;2.75;1.20;;;11.80;99.90;;;;;;4915150;29;20230;-88
2024/03/29 09:49:54;;;;;;;3.53;1.30;;;12.50;99.90;;;;;;4904755;29;20182;-88
2024/03/29 09:52:20;;;;;;;2.35;1.80;;;13.00;99.90;;;;;;4884842;29;20186;-88
2024/03/29 09:54:46;;;;;;;2.80;1.70;;;13.60;99.90;;;;;;4898291;29;20690;-88
2024/03/29 09:57:17;;;;;;;2.15;1.92;;;12.80;99.90;;;;;;4919241;29;20214;-88
2024/03/29 09:59:58;;;;;;;3.65;1.85;;;13.20;99.90;;;;;;4923650;29;20195;-88
2024/03/29 10:02:32;;;;;;;2.28;1.80;;;12.70;99.90;;;;;;4919049;29;20249;-88
2024/03/29 10:05:02;;;;;;;2.25;2.03;;;13.30;99.90;;;;;;4919497;29;20585;-88
2024/03/29 10:07:29;;;;;;;2.80;2.20;;;14.10;99.90;;;;;;4906222;29;20213;-88
2024/03/29 10:09:55;;;;;;;3.25;1.83;;;14.00;99.90;;;;;;4915426;29;20227;-88
2024/03/29 10:12:21;;;;;;;2.65;2.05;;;13.90;99.90;;;;;;4916338;29;20223;-87
2024/03/29 10:14:54;;;;;;;2.30;1.50;;;13.40;99.90;;;;;;4903042;29;20738;-88
2024/03/29 10:17:20;;;;;;;2.85;2.17;;;14.20;99.90;;;;;;4901560;29;20679;-89
2024/03/29 10:19:54;;;;;;;3.17;1.50;;;14.00;99.90;;;;;;4904274;29;20282;-88
2024/03/29 10:22:20;;;;;;;2.22;2.03;;;14.00;99.90;;;;;;4915591;29;20454;-89
2024/03/29 10:24:45;;;;;;;3.20;2.10;;;15.20;99.90;;;;;;4917925;29;20204;-89
2024/03/29 10:27:11;;;;;;;3.13;2.20;;;15.80;99.90;;;;;;4922932;29;20230;-89
2024/03/29 10:29:37;;;;;;;1.77;1.67;;;15.60;99.90;;;;;;4910605;29;20586;-89
2024/03/29 10:32:03;;;;;;;1.97;1.77;;;16.10;99.90;;;;;;4887675;29;20199;-87
2024/03/29 10:34:33;;;;;;;3.03;2.35;;;15.90;99.90;;;;;;4903413;29;20200;-87
2024/03/29 10:37:00;;;;;;;1.90;1.80;;;15.90;99.90;;;;;;4905274;29;20226;-86
2024/03/29 10:39:58;;;;;;;;;;;;;;;;;;;;;
2024/03/29 10:42:52;;;;;;;2.33;2.10;;;15.60;99.90;;;;;;4916909;29;20206;-88
2024/03/29 10:45:20;;;;;;;2.10;1.90;;;15.80;99.90;;;;;;4891141;29;20237;-87
2024/03/29 10:47:52;;;;;;;2.25;2.00;;;17.80;99.90;;;;;;4903790;29;20199;-86
2024/03/29 10:50:21;;;;;;;3.63;2.40;;;17.60;99.90;;;;;;4902161;29;20200;-86
2024/03/29 10:52:48;;;;;;;3.65;3.35;;;15.30;99.90;;;;;;4918538;29;20186;-86
2024/03/29 10:55:14;;;;;;;2.25;2.08;;;15.40;99.90;;;;;;4917779;29;20190;-86
2024/03/29 10:57:42;;;;;;;3.23;2.37;;;15.40;99.90;;;;;;4923068;29;20210;-86
2024/03/29 11:00:14;;;;;;;4.47;2.88;;;15.60;99.90;;;;;;4907256;29;20281;-86
2024/03/29 11:02:52;;;;;;;3.05;2.20;;;15.40;99.90;;;;;;4921193;29;20594;-87
2024/03/29 11:05:18;;;;;;;3.80;2.35;;;15.20;99.90;;;;;;4919828;29;20221;-87
2024/03/29 11:07:45;;;;;;;3.03;2.72;;;14.80;99.90;;;;;;4901572;29;20265;-87
2024/03/29 11:10:15;;;;;;;2.60;2.30;;;15.50;99.90;;;;;;4893435;29;20591;-87
2024/03/29 11:13:11;;;;;;;2.40;2.20;;;14.70;99.90;;;;;;4919837;29;20233;-87
2024/03/29 11:15:40;;;;;;;3.95;2.25;;;15.40;99.90;;;;;;4919962;29;20254;-88
2024/03/29 11:18:08;;;;;;;4.18;2.33;;;16.20;99.90;;;;;;4905512;29;20237;-87
2024/03/29 11:20:36;;;;;;;2.75;2.55;;;16.00;99.90;;;;;;4909757;29;20249;-86
2024/03/29 11:23:06;;;;;;;2.60;2.40;;;16.30;99.90;;;;;;4927802;29;20218;-87
2024/03/29 11:25:43;;;;;;;3.42;2.47;;;16.30;99.90;;;;;;4902550;29;20204;-88
2024/03/29 11:28:13;;;;;;;2.38;2.17;;;16.50;99.90;;;;;;4898152;29;20194;-86
2024/03/29 11:30:45;;;;;;;3.50;3.20;;;16.20;99.90;;;;;;4906953;29;20274;-88
2024/03/29 11:33:30;;;;;;;2.50;2.30;;;16.50;99.90;;;;;;4932464;29;20206;-88
2024/03/29 11:35:56;;;;;;;4.10;2.70;;;15.90;99.90;;;;;;4931091;29;20209;-87
2024/03/29 11:38:24;;;;;;;5.72;4.85;;;16.30;99.90;;;;;;4933537;29;20217;-89
2024/03/29 11:41:06;;;;;;;3.15;2.65;;;15.70;99.90;;;;;;4921575;29;20178;-88
2024/03/29 11:43:35;;;;;;;2.40;2.20;;;16.20;99.90;;;;;;4929945;29;20660;-88
2024/03/29 11:46:02;;;;;;;3.30;2.40;;;16.50;99.90;;;;;;4898973;29;20253;-88
2024/03/29 11:48:31;;;;;;;2.60;2.40;;;16.50;99.90;;;;;;4922329;29;20194;-86
2024/03/29 11:50:59;;;;;;;3.05;2.75;;;16.10;99.90;;;;;;4921507;29;20245;-86
2024/03/29 11:53:25;;;;;;;2.67;1.85;;;16.30;99.90;;;;;;4921343;29;20262;-85
2024/03/29 11:55:53;;;;;;;4.90;3.03;;;16.40;99.90;;;;;;4926062;29;20316;-85
2024/03/29 11:58:21;;;;;;;2.80;2.28;;;15.80;99.90;;;;;;4906352;29;20195;-90
2024/03/29 12:01:10;;;;;;;2.53;2.20;;;16.80;99.90;;;;;;4919190;29;20186;-92
2024/03/29 12:04:04;;;;;;;2.05;1.95;;;16.30;99.90;;;;;;4919160;29;20275;-87
2024/03/29 12:06:33;;;;;;;2.70;2.50;;;16.20;99.90;;;;;;4900604;29;20271;-87
2024/03/29 12:09:03;;;;;;;4.82;4.40;;;16.90;99.90;;;;;;4920883;29;20204;-86
2024/03/29 12:20:39;;;;;;;2.90;2.42;;;16.20;99.50;;;;;;5300706;23;20244;-82
2024/03/29 12:23:09;;;;;;;3.70;2.08;;;16.20;99.70;;;;;;4941061;29;20302;-82
2024/03/29 12:25:37;;;;;;;3.25;2.40;;;16.40;99.90;;;;;;4923973;29;20209;-82
2024/03/29 12:28:03;;;;;;;4.10;2.90;;;16.90;99.10;;;;;;4938804;29;20186;-82
2024/03/29 12:30:29;;;;;;;2.50;2.30;;;17.00;98.50;;;;;;4925325;29;20186;-82
2024/03/29 12:33:10;;;;;;;3.10;2.35;;;17.30;98.70;;;;;;4934569;29;20460;-81
2024/03/29 12:35:36;;;;;;;2.30;2.10;;;17.50;96.80;;;;;;4941509;29;20174;-81
2024/03/29 12:38:03;;;;;;;2.17;1.90;;;17.50;96.50;;;;;;4934473;29;20217;-81
2024/03/29 12:40:35;;;;;;;2.45;1.75;;;17.80;96.70;;;;;;4925416;29;20190;-80
2024/03/29 12:43:03;;;;;;;2.97;2.75;;;18.10;96.40;;;;;;4925349;29;20212;-81
2024/03/29 12:45:29;;;;;;;2.83;2.10;;;18.00;96.80;;;;;;4936176;29;20623;-88
2024/03/29 12:47:54;;;;;;;2.70;2.20;;;18.90;96.20;;;;;;4931763;29;20294;-85
2024/03/29 12:50:31;;;;;;;1.97;1.70;;;18.50;95.10;;;;;;4956140;29;20457;-85
2024/03/29 12:53:05;;;;;;;2.17;1.90;;;18.40;95.10;;;;;;4925836;29;20189;-85
2024/03/29 12:55:35;;;;;;;2.08;1.88;;;18.30;94.10;;;;;;4924601;29;20189;-85
2024/03/29 13:01:26;;;;;;;3.20;1.63;;;18.10;94.00;;;;;;4899988;29;20242;-85
2024/03/29 13:04:01;;;;;;;4.25;2.67;;;18.20;95.20;;;;;;4880522;29;20194;-86
2024/03/29 13:06:26;;;;;;;2.40;1.92;;;18.60;95.70;;;;;;5246550;23;20499;-86
2024/03/29 13:08:53;;;;;;;1.93;1.40;;;18.40;94.80;;;;;;4952682;28;20220;-85